createdAt,value
2022-12-01T00:00:40.618Z,2.04
2022-12-01T00:01:40.697Z,2.04
2022-12-01T00:02:40.681Z,2.05
2022-12-01T00:03:40.589Z,2.05
2022-12-01T00:04:40.572Z,2.05
2022-12-01T00:05:40.547Z,2.04
2022-12-01T00:06:40.540Z,2.02
2022-12-01T00:07:40.600Z,2.00
2022-12-01T00:08:40.516Z,1.98
2022-12-01T00:09:40.498Z,1.95
2022-12-01T00:10:40.488Z,1.94
2022-12-01T00:11:40.466Z,1.93
2022-12-01T00:12:40.472Z,1.93
2022-12-01T00:13:40.461Z,1.94
2022-12-01T00:14:40.437Z,1.97
2022-12-01T00:15:40.415Z,2.00
2022-12-01T00:16:40.552Z,2.01
2022-12-01T00:17:40.392Z,2.04
2022-12-01T00:18:40.386Z,2.07
2022-12-01T00:19:40.386Z,2.09
2022-12-01T00:20:40.365Z,2.09
2022-12-01T00:21:40.350Z,2.10
2022-12-01T00:22:40.334Z,2.11
2022-12-01T00:23:40.306Z,2.13
2022-12-01T00:24:40.310Z,2.12
2022-12-01T00:25:40.316Z,2.10
2022-12-01T00:26:40.290Z,2.08
2022-12-01T00:27:40.268Z,2.06
2022-12-01T00:28:40.258Z,2.05
2022-12-01T00:29:40.236Z,2.04
2022-12-01T00:30:40.225Z,2.04
2022-12-01T00:31:40.314Z,2.03
2022-12-01T00:32:40.216Z,2.02
2022-12-01T00:33:40.209Z,2.00
2022-12-01T00:34:40.181Z,1.99
2022-12-01T00:35:40.164Z,1.99
2022-12-01T00:36:40.155Z,1.99
2022-12-01T00:37:40.163Z,1.99
2022-12-01T00:38:40.133Z,1.98
2022-12-01T00:39:40.115Z,1.98
2022-12-01T00:40:40.095Z,1.98
2022-12-01T00:41:40.082Z,1.97
2022-12-01T00:42:40.095Z,1.97
2022-12-01T00:43:40.075Z,1.96
2022-12-01T00:44:40.043Z,1.96
2022-12-01T00:45:40.117Z,1.97
2022-12-01T00:46:40.030Z,1.97
2022-12-01T00:47:40.003Z,1.98
2022-12-01T00:48:40.005Z,1.99
2022-12-01T00:49:40.002Z,2.00
2022-12-01T00:50:39.973Z,2.01
2022-12-01T00:51:39.953Z,2.02
2022-12-01T00:52:39.942Z,2.03
2022-12-01T00:53:39.929Z,2.04
2022-12-01T00:54:39.920Z,2.03
2022-12-01T00:55:39.923Z,2.05
2022-12-01T00:56:39.901Z,2.06
2022-12-01T00:57:39.876Z,2.08
2022-12-01T00:58:39.882Z,2.08
2022-12-01T00:59:39.855Z,2.09
2022-12-01T01:00:39.843Z,2.08
2022-12-01T01:01:39.923Z,2.07
2022-12-01T01:02:39.889Z,2.06
2022-12-01T01:03:39.800Z,2.05
2022-12-01T01:04:39.791Z,2.04
2022-12-01T01:05:39.773Z,2.03
2022-12-01T01:06:39.760Z,2.03
2022-12-01T01:07:39.815Z,2.02
2022-12-01T01:08:39.755Z,2.00
2022-12-01T01:09:39.735Z,1.99
2022-12-01T01:10:39.720Z,2.00
2022-12-01T01:11:39.697Z,2.00
2022-12-01T01:12:39.689Z,2.00
2022-12-01T01:13:39.690Z,2.01
2022-12-01T01:14:39.660Z,2.00
2022-12-01T01:15:39.649Z,2.01
2022-12-01T01:16:39.717Z,2.01
2022-12-01T01:17:39.624Z,2.02
2022-12-01T01:18:39.618Z,2.02
2022-12-01T01:19:39.611Z,2.01
2022-12-01T01:20:39.588Z,2.00
2022-12-01T01:21:39.569Z,1.99
2022-12-01T01:22:39.566Z,1.97
2022-12-01T01:23:39.550Z,1.95
2022-12-01T01:24:39.529Z,1.93
2022-12-01T01:25:39.539Z,1.91
2022-12-01T01:26:39.510Z,1.90
2022-12-01T01:27:39.497Z,1.88
2022-12-01T01:28:39.488Z,1.86
2022-12-01T01:29:39.457Z,1.83
2022-12-01T01:30:39.522Z,1.80
2022-12-01T01:31:39.457Z,1.77
2022-12-01T01:32:39.428Z,1.74
2022-12-01T01:33:39.416Z,1.74
2022-12-01T01:34:39.404Z,1.75
2022-12-01T01:35:39.396Z,1.74
2022-12-01T01:36:39.377Z,1.75
2022-12-01T01:37:39.378Z,1.77
2022-12-01T01:38:39.360Z,1.77
2022-12-01T01:39:39.336Z,1.77
2022-12-01T01:40:39.334Z,1.77
2022-12-01T01:41:39.305Z,1.77
2022-12-01T01:42:39.303Z,1.77
2022-12-01T01:43:39.306Z,1.78
2022-12-01T01:44:39.285Z,1.78
2022-12-01T01:45:39.279Z,1.79
2022-12-01T01:46:39.254Z,1.80
2022-12-01T01:47:39.225Z,1.80
2022-12-01T01:48:39.229Z,1.80
2022-12-01T01:49:39.226Z,1.80
2022-12-01T01:50:39.205Z,1.84
2022-12-01T01:51:39.174Z,1.86
2022-12-01T01:52:39.177Z,1.85
2022-12-01T01:53:39.153Z,1.85
2022-12-01T01:54:39.152Z,1.87
2022-12-01T01:55:39.148Z,1.89
2022-12-01T01:56:39.114Z,1.91
2022-12-01T01:57:39.103Z,1.91
2022-12-01T01:58:39.093Z,1.88
2022-12-01T01:59:39.073Z,1.85
2022-12-01T02:00:39.073Z,1.84
2022-12-01T02:01:39.143Z,1.84
2022-12-01T02:02:39.106Z,1.84
2022-12-01T02:03:39.024Z,1.83
2022-12-01T02:04:39.014Z,1.81
2022-12-01T02:05:38.992Z,1.79
2022-12-01T02:06:38.992Z,1.77
2022-12-01T02:07:39.017Z,1.78
2022-12-01T02:08:38.962Z,1.80
2022-12-01T02:09:38.950Z,1.81
2022-12-01T02:10:38.932Z,1.80
2022-12-01T02:11:38.924Z,1.78
2022-12-01T02:12:38.924Z,1.76
2022-12-01T02:13:38.912Z,1.74
2022-12-01T02:14:38.882Z,1.73
2022-12-01T02:15:38.870Z,1.73
2022-12-01T02:16:38.892Z,1.73
2022-12-01T02:17:41.689Z,1.73
2022-12-01T02:18:38.841Z,1.73
2022-12-01T02:19:38.840Z,1.73
2022-12-01T02:20:38.814Z,1.73
2022-12-01T02:21:38.790Z,1.74
2022-12-01T02:22:38.790Z,1.74
2022-12-01T02:23:38.769Z,1.73
2022-12-01T02:24:38.759Z,1.72
2022-12-01T02:25:38.753Z,1.71
2022-12-01T02:26:38.739Z,1.71
2022-12-01T02:27:38.719Z,1.72
2022-12-01T02:28:38.711Z,1.72
2022-12-01T02:29:38.692Z,1.71
2022-12-01T02:30:38.729Z,1.71
2022-12-01T02:31:38.689Z,1.71
2022-12-01T02:32:39.658Z,1.72
2022-12-01T02:33:38.637Z,1.70
2022-12-01T02:34:38.629Z,1.68
2022-12-01T02:35:38.608Z,1.65
2022-12-01T02:36:38.601Z,1.64
2022-12-01T02:37:38.599Z,1.63
2022-12-01T02:38:38.579Z,1.63
2022-12-01T02:39:38.571Z,1.64
2022-12-01T02:40:38.548Z,1.65
2022-12-01T02:41:38.536Z,1.68
2022-12-01T02:42:38.526Z,1.68
2022-12-01T02:43:38.527Z,1.69
2022-12-01T02:44:38.497Z,1.69
2022-12-01T02:45:38.477Z,1.67
2022-12-01T02:46:38.530Z,1.64
2022-12-01T02:47:38.447Z,1.62
2022-12-01T02:48:38.449Z,1.61
2022-12-01T02:49:38.466Z,1.61
2022-12-01T02:50:38.427Z,1.61
2022-12-01T02:51:38.397Z,1.62
2022-12-01T02:52:38.388Z,1.61
2022-12-01T02:53:38.377Z,1.61
2022-12-01T02:54:38.365Z,1.62
2022-12-01T02:55:38.367Z,1.62
2022-12-01T02:56:38.343Z,1.63
2022-12-01T02:57:38.317Z,1.62
2022-12-01T02:58:38.315Z,1.62
2022-12-01T02:59:38.304Z,1.62
2022-12-01T03:00:39.296Z,1.62
2022-12-01T03:01:38.369Z,1.63
2022-12-01T03:02:38.332Z,1.62
2022-12-01T03:03:38.265Z,1.60
2022-12-01T03:04:38.243Z,1.58
2022-12-01T03:05:38.222Z,1.56
2022-12-01T03:06:38.216Z,1.55
2022-12-01T03:07:38.266Z,1.53
2022-12-01T03:08:38.185Z,1.53
2022-12-01T03:09:38.177Z,1.53
2022-12-01T03:10:38.165Z,1.51
2022-12-01T03:11:38.147Z,1.48
2022-12-01T03:12:38.144Z,1.47
2022-12-01T03:13:38.143Z,1.46
2022-12-01T03:14:38.119Z,1.46
2022-12-01T03:15:38.158Z,1.47
2022-12-01T03:16:38.083Z,1.46
2022-12-01T03:17:38.064Z,1.44
2022-12-01T03:18:38.061Z,1.42
2022-12-01T03:19:38.062Z,1.40
2022-12-01T03:20:38.036Z,1.39
2022-12-01T03:21:38.013Z,1.39
2022-12-01T03:22:38.003Z,1.39
2022-12-01T03:23:37.991Z,1.37
2022-12-01T03:24:37.969Z,1.36
2022-12-01T03:25:37.981Z,1.33
2022-12-01T03:26:37.950Z,1.30
2022-12-01T03:27:37.935Z,1.27
2022-12-01T03:28:37.931Z,1.25
2022-12-01T03:29:37.911Z,1.22
2022-12-01T03:30:37.904Z,1.21
2022-12-01T03:31:37.992Z,1.19
2022-12-01T03:32:37.871Z,1.19
2022-12-01T03:33:37.851Z,1.20
2022-12-01T03:34:37.844Z,1.20
2022-12-01T03:35:37.832Z,1.19
2022-12-01T03:36:37.823Z,1.18
2022-12-01T03:37:37.839Z,1.18
2022-12-01T03:38:37.800Z,1.18
2022-12-01T03:39:37.781Z,1.15
2022-12-01T03:40:37.772Z,1.13
2022-12-01T03:41:37.752Z,1.12
2022-12-01T03:42:37.743Z,1.11
2022-12-01T03:43:37.749Z,1.10
2022-12-01T03:44:37.719Z,1.09
2022-12-01T03:45:37.702Z,1.09
2022-12-01T03:46:37.733Z,1.10
2022-12-01T03:47:37.680Z,1.10
2022-12-01T03:48:37.668Z,1.10
2022-12-01T03:49:37.680Z,1.07
2022-12-01T03:50:37.639Z,1.04
2022-12-01T03:51:37.620Z,1.01
2022-12-01T03:52:37.610Z,1.00
2022-12-01T03:53:37.599Z,0.98
2022-12-01T03:54:37.588Z,0.98
2022-12-01T03:55:37.588Z,0.97
2022-12-01T03:56:37.574Z,0.94
2022-12-01T03:57:37.547Z,0.93
2022-12-01T03:58:37.538Z,0.91
2022-12-01T03:59:37.527Z,0.90
2022-12-01T04:00:37.512Z,0.90
2022-12-01T04:01:37.568Z,0.90
2022-12-01T04:02:37.558Z,0.89
2022-12-01T04:03:37.467Z,0.89
2022-12-01T04:04:37.467Z,0.90
2022-12-01T04:05:37.447Z,0.89
2022-12-01T04:06:37.437Z,0.89
2022-12-01T04:07:37.512Z,0.88
2022-12-01T04:08:37.410Z,0.87
2022-12-01T04:09:37.395Z,0.86
2022-12-01T04:10:37.386Z,0.84
2022-12-01T04:11:37.356Z,0.84
2022-12-01T04:12:37.356Z,0.85
2022-12-01T04:13:37.356Z,0.87
2022-12-01T04:14:37.326Z,0.90
2022-12-01T04:15:37.310Z,0.91
2022-12-01T04:16:37.339Z,0.92
2022-12-01T04:17:37.281Z,0.92
2022-12-01T04:18:37.274Z,0.91
2022-12-01T04:19:37.294Z,0.88
2022-12-01T04:20:37.254Z,0.84
2022-12-01T04:21:37.234Z,0.83
2022-12-01T04:22:37.232Z,0.81
2022-12-01T04:23:37.206Z,0.79
2022-12-01T04:24:37.204Z,0.75
2022-12-01T04:25:37.204Z,0.72
2022-12-01T04:26:37.173Z,0.71
2022-12-01T04:27:37.164Z,0.72
2022-12-01T04:28:37.153Z,0.71
2022-12-01T04:29:37.205Z,0.68
2022-12-01T04:30:37.123Z,0.66
2022-12-01T04:31:37.151Z,0.65
2022-12-01T04:32:37.103Z,0.64
2022-12-01T04:33:37.082Z,0.64
2022-12-01T04:34:37.076Z,0.64
2022-12-01T04:35:37.053Z,0.63
2022-12-01T04:36:37.061Z,0.63
2022-12-01T04:37:37.052Z,0.61
2022-12-01T04:38:37.023Z,0.60
2022-12-01T04:39:37.010Z,0.57
2022-12-01T04:40:37.003Z,0.55
2022-12-01T04:41:36.979Z,0.52
2022-12-01T04:42:36.971Z,0.50
2022-12-01T04:43:36.983Z,0.49
2022-12-01T04:44:36.954Z,0.49
2022-12-01T04:45:36.950Z,0.49
2022-12-01T04:46:36.992Z,0.49
2022-12-01T04:47:36.901Z,0.47
2022-12-01T04:48:36.891Z,0.45
2022-12-01T04:49:36.919Z,0.44
2022-12-01T04:50:36.868Z,0.43
2022-12-01T04:51:36.853Z,0.43
2022-12-01T04:52:36.841Z,0.43
2022-12-01T04:53:36.821Z,0.44
2022-12-01T04:54:36.810Z,0.45
2022-12-01T04:55:36.831Z,0.44
2022-12-01T04:56:36.789Z,0.44
2022-12-01T04:57:36.794Z,0.44
2022-12-01T04:58:36.760Z,0.43
2022-12-01T04:59:36.752Z,0.42
2022-12-01T05:00:36.816Z,0.42
2022-12-01T05:01:36.792Z,0.40
2022-12-01T05:02:36.718Z,0.39
2022-12-01T05:03:36.698Z,0.39
2022-12-01T05:04:36.693Z,0.39
2022-12-01T05:05:36.670Z,0.39
2022-12-01T05:06:36.658Z,0.38
2022-12-01T05:07:36.709Z,0.36
2022-12-01T05:08:36.648Z,0.36
2022-12-01T05:09:36.617Z,0.37
2022-12-01T05:10:36.608Z,0.38
2022-12-01T05:11:36.587Z,0.38
2022-12-01T05:12:36.577Z,0.37
2022-12-01T05:13:36.598Z,0.35
2022-12-01T05:14:36.557Z,0.33
2022-12-01T05:15:36.557Z,0.32
2022-12-01T05:16:36.575Z,0.31
2022-12-01T05:17:37.227Z,0.30
2022-12-01T05:18:36.574Z,0.29
2022-12-01T05:19:36.523Z,0.28
2022-12-01T05:20:36.485Z,0.27
2022-12-01T05:21:36.467Z,0.27
2022-12-01T05:23:03.890Z,0.28
2022-12-01T05:23:37.447Z,0.28
2022-12-01T05:24:36.431Z,0.28
2022-12-01T05:25:36.445Z,0.27
2022-12-01T05:26:36.414Z,0.26
2022-12-01T05:27:36.388Z,0.26
2022-12-01T05:28:36.378Z,0.25
2022-12-01T05:29:36.372Z,0.26
2022-12-01T05:30:36.347Z,0.25
2022-12-01T05:31:36.404Z,0.25
2022-12-01T05:32:36.327Z,0.25
2022-12-01T05:33:36.314Z,0.25
2022-12-01T05:34:36.292Z,0.27
2022-12-01T05:35:36.295Z,0.27
2022-12-01T05:36:36.263Z,0.27
2022-12-01T05:37:36.294Z,0.28
2022-12-01T05:38:36.235Z,0.31
2022-12-01T05:39:36.243Z,0.35
2022-12-01T05:40:36.213Z,0.38
2022-12-01T05:41:36.213Z,0.40
2022-12-01T05:42:36.185Z,0.43
2022-12-01T05:43:36.215Z,0.45
2022-12-01T05:44:36.165Z,0.47
2022-12-01T05:45:36.201Z,0.48
2022-12-01T05:46:36.142Z,0.50
2022-12-01T05:47:36.133Z,0.51
2022-12-01T05:48:36.112Z,0.53
2022-12-01T05:49:36.159Z,0.56
2022-12-01T05:50:36.082Z,0.57
2022-12-01T05:51:36.088Z,0.58
2022-12-01T05:52:36.083Z,0.58
2022-12-01T05:53:36.052Z,0.57
2022-12-01T05:54:36.033Z,0.55
2022-12-01T05:55:36.056Z,0.53
2022-12-01T05:56:36.008Z,0.51
2022-12-01T05:57:35.999Z,0.50
2022-12-01T05:58:35.982Z,0.50
2022-12-01T05:59:35.981Z,0.51
2022-12-01T06:00:39.676Z,0.51
2022-12-01T06:01:37.054Z,0.51
2022-12-01T06:02:35.930Z,0.51
2022-12-01T06:03:35.922Z,0.51
2022-12-01T06:04:35.939Z,0.50
2022-12-01T06:05:35.886Z,0.51
2022-12-01T06:06:35.889Z,0.52
2022-12-01T06:07:35.934Z,0.55
2022-12-01T06:08:35.896Z,0.59
2022-12-01T06:09:35.848Z,0.62
2022-12-01T06:10:35.838Z,0.63
2022-12-01T06:11:35.873Z,0.65
2022-12-01T06:12:35.808Z,0.67
2022-12-01T06:13:35.829Z,0.69
2022-12-01T06:14:35.786Z,0.71
2022-12-01T06:15:35.769Z,0.72
2022-12-01T06:16:35.831Z,0.73
2022-12-01T06:17:39.985Z,0.74
2022-12-01T06:18:35.722Z,0.74
2022-12-01T06:19:35.738Z,0.75
2022-12-01T06:20:35.705Z,0.74
2022-12-01T06:21:35.689Z,0.74
2022-12-01T06:22:35.667Z,0.74
2022-12-01T06:23:35.657Z,0.76
2022-12-01T06:24:35.646Z,0.78
2022-12-01T06:25:35.671Z,0.81
2022-12-01T06:26:35.630Z,0.83
2022-12-01T06:27:35.616Z,0.85
2022-12-01T06:28:35.615Z,0.88
2022-12-01T06:29:40.584Z,0.89
2022-12-01T06:30:36.588Z,0.89
2022-12-01T06:31:35.621Z,0.90
2022-12-01T06:32:35.545Z,0.92
2022-12-01T06:33:35.539Z,0.95
2022-12-01T06:34:35.519Z,0.95
2022-12-01T06:35:35.507Z,0.94
2022-12-01T06:36:35.506Z,0.94
2022-12-01T06:37:35.485Z,0.94
2022-12-01T06:38:35.466Z,0.95
2022-12-01T06:39:35.456Z,0.97
2022-12-01T06:40:35.436Z,0.98
2022-12-01T06:41:35.433Z,0.99
2022-12-01T06:42:35.455Z,1.00
2022-12-01T06:43:35.405Z,1.00
2022-12-01T06:44:35.391Z,1.02
2022-12-01T06:45:35.415Z,1.03
2022-12-01T06:46:35.540Z,1.04
2022-12-01T06:47:35.353Z,1.03
2022-12-01T06:48:35.366Z,1.03
2022-12-01T06:49:35.334Z,1.03
2022-12-01T06:50:35.307Z,1.03
2022-12-01T06:51:35.294Z,1.05
2022-12-01T06:52:35.280Z,1.05
2022-12-01T06:53:35.272Z,1.07
2022-12-01T06:54:35.293Z,1.08
2022-12-01T06:55:35.242Z,1.10
2022-12-01T06:56:35.230Z,1.11
2022-12-01T06:57:35.223Z,1.12
2022-12-01T06:58:35.204Z,1.15
2022-12-01T06:59:35.193Z,1.17
2022-12-01T07:00:35.210Z,1.19
2022-12-01T07:01:35.251Z,1.20
2022-12-01T07:02:35.205Z,1.21
2022-12-01T07:03:35.153Z,1.23
2022-12-01T07:04:35.121Z,1.24
2022-12-01T07:05:35.123Z,1.25
2022-12-01T07:06:35.131Z,1.25
2022-12-01T07:07:35.109Z,1.26
2022-12-01T07:08:35.071Z,1.27
2022-12-01T07:09:35.071Z,1.30
2022-12-01T07:10:35.050Z,1.32
2022-12-01T07:11:35.063Z,1.35
2022-12-01T07:12:35.041Z,1.36
2022-12-01T07:13:35.019Z,1.38
2022-12-01T07:14:34.999Z,1.39
2022-12-01T07:15:34.985Z,1.39
2022-12-01T07:16:35.032Z,1.42
2022-12-01T07:17:34.970Z,1.44
2022-12-01T07:18:34.969Z,1.43
2022-12-01T07:19:34.940Z,1.43
2022-12-01T07:20:34.919Z,1.45
2022-12-01T07:21:34.913Z,1.46
2022-12-01T07:22:34.892Z,1.47
2022-12-01T07:23:34.887Z,1.47
2022-12-01T07:24:34.887Z,1.47
2022-12-01T07:25:34.858Z,1.46
2022-12-01T07:26:34.848Z,1.45
2022-12-01T07:27:34.829Z,1.45
2022-12-01T07:28:34.820Z,1.44
2022-12-01T07:29:35.818Z,1.44
2022-12-01T07:30:34.868Z,1.44
2022-12-01T07:31:34.789Z,1.44
2022-12-01T07:32:34.784Z,1.44
2022-12-01T07:33:34.765Z,1.43
2022-12-01T07:34:34.746Z,1.44
2022-12-01T07:35:34.730Z,1.44
2022-12-01T07:36:34.727Z,1.46
2022-12-01T07:37:34.706Z,1.47
2022-12-01T07:38:34.686Z,1.48
2022-12-01T07:39:34.677Z,1.48
2022-12-01T07:40:34.657Z,1.47
2022-12-01T07:41:34.660Z,1.47
2022-12-01T07:42:34.667Z,1.47
2022-12-01T07:43:34.631Z,1.49
2022-12-01T07:44:34.607Z,1.50
2022-12-01T07:45:34.606Z,1.49
2022-12-01T07:46:34.697Z,1.48
2022-12-01T07:47:34.575Z,1.51
2022-12-01T07:48:34.581Z,1.55
2022-12-01T07:49:34.559Z,1.58
2022-12-01T07:50:34.535Z,1.61
2022-12-01T07:51:34.527Z,1.62
2022-12-01T07:52:34.513Z,1.62
2022-12-01T07:53:34.495Z,1.63
2022-12-01T07:54:34.514Z,1.65
2022-12-01T07:55:34.476Z,1.66
2022-12-01T07:56:34.455Z,1.68
2022-12-01T07:57:34.446Z,1.70
2022-12-01T07:58:34.434Z,1.71
2022-12-01T07:59:34.579Z,1.72
2022-12-01T08:00:34.451Z,1.73
2022-12-01T08:01:34.438Z,1.73
2022-12-01T08:02:34.450Z,1.72
2022-12-01T08:03:34.375Z,1.72
2022-12-01T08:04:34.354Z,1.72
2022-12-01T08:05:34.346Z,1.73
2022-12-01T08:06:34.342Z,1.74
2022-12-01T08:07:34.371Z,1.76
2022-12-01T08:08:34.293Z,1.78
2022-12-01T08:09:34.292Z,1.82
2022-12-01T08:10:34.279Z,1.83
2022-12-01T08:11:34.263Z,1.85
2022-12-01T08:12:34.263Z,1.86
2022-12-01T08:13:34.242Z,1.89
2022-12-01T08:14:34.243Z,1.91
2022-12-01T08:15:34.256Z,1.91
2022-12-01T08:16:34.201Z,1.92
2022-12-01T08:17:34.190Z,1.94
2022-12-01T08:18:34.199Z,1.97
2022-12-01T08:19:34.162Z,2.00
2022-12-01T08:20:34.151Z,2.00
2022-12-01T08:21:34.144Z,1.99
2022-12-01T08:22:34.112Z,1.97
2022-12-01T08:23:34.111Z,1.95
2022-12-01T08:24:34.133Z,1.93
2022-12-01T08:25:34.099Z,1.91
2022-12-01T08:26:34.061Z,1.89
2022-12-01T08:27:34.060Z,1.89
2022-12-01T08:28:34.043Z,1.87
2022-12-01T08:29:34.032Z,1.85
2022-12-01T08:30:34.040Z,1.84
2022-12-01T08:31:34.090Z,1.85
2022-12-01T08:32:33.991Z,1.86
2022-12-01T08:33:33.983Z,1.86
2022-12-01T08:34:33.984Z,1.87
2022-12-01T08:35:33.952Z,1.87
2022-12-01T08:36:33.972Z,1.89
2022-12-01T08:37:33.928Z,1.91
2022-12-01T08:38:33.913Z,1.94
2022-12-01T08:39:33.908Z,1.95
2022-12-01T08:40:33.878Z,1.96
2022-12-01T08:41:33.879Z,1.98
2022-12-01T08:42:33.889Z,2.00
2022-12-01T08:43:56.486Z,2.02
2022-12-01T08:44:34.914Z,2.04
2022-12-01T08:45:33.830Z,2.05
2022-12-01T08:46:34.038Z,2.07
2022-12-01T08:47:33.798Z,2.10
2022-12-01T08:48:33.798Z,2.13
2022-12-01T08:49:33.776Z,2.15
2022-12-01T08:50:33.759Z,2.16
2022-12-01T08:51:33.756Z,2.15
2022-12-01T08:52:33.731Z,2.14
2022-12-01T08:53:33.726Z,2.14
2022-12-01T08:54:33.734Z,2.15
2022-12-01T08:55:33.698Z,2.14
2022-12-01T08:56:33.677Z,2.17
2022-12-01T08:57:33.667Z,2.21
2022-12-01T08:58:33.660Z,2.25
2022-12-01T08:59:33.637Z,2.26
2022-12-01T09:00:33.656Z,2.26
2022-12-01T09:01:33.653Z,2.25
2022-12-01T09:02:33.694Z,2.24
2022-12-01T09:03:33.595Z,2.23
2022-12-01T09:04:33.578Z,2.25
2022-12-01T09:05:33.565Z,2.26
2022-12-01T09:06:33.575Z,2.27
2022-12-01T09:07:33.568Z,2.28
2022-12-01T09:08:33.525Z,2.28
2022-12-01T09:09:33.517Z,2.30
2022-12-01T09:10:33.496Z,2.33
2022-12-01T09:11:33.490Z,2.34
2022-12-01T09:12:33.495Z,2.34
2022-12-01T09:13:33.466Z,2.33
2022-12-01T09:14:33.448Z,2.32
2022-12-01T09:15:33.437Z,2.32
2022-12-01T09:16:33.596Z,2.30
2022-12-01T09:17:33.414Z,2.31
2022-12-01T09:18:33.422Z,2.31
2022-12-01T09:19:33.384Z,2.32
2022-12-01T09:20:33.362Z,2.32
2022-12-01T09:21:33.372Z,2.32
2022-12-01T09:22:33.334Z,2.32
2022-12-01T09:23:33.332Z,2.33
2022-12-01T09:24:33.324Z,2.34
2022-12-01T09:25:33.304Z,2.34
2022-12-01T09:26:33.283Z,2.34
2022-12-01T09:27:33.282Z,2.33
2022-12-01T09:28:33.265Z,2.32
2022-12-01T09:29:33.254Z,2.32
2022-12-01T09:30:33.252Z,2.33
2022-12-01T09:31:33.296Z,2.33
2022-12-01T09:32:33.202Z,2.33
2022-12-01T09:33:33.201Z,2.33
2022-12-01T09:34:33.193Z,2.33
2022-12-01T09:35:33.171Z,2.32
2022-12-01T09:36:33.181Z,2.31
2022-12-01T09:37:33.160Z,2.31
2022-12-01T09:38:33.131Z,2.33
2022-12-01T09:39:33.142Z,2.34
2022-12-01T09:40:33.107Z,2.34
2022-12-01T09:41:33.103Z,2.35
2022-12-01T09:42:35.542Z,2.36
2022-12-01T09:43:33.072Z,2.38
2022-12-01T09:44:33.053Z,2.38
2022-12-01T09:45:33.074Z,2.37
2022-12-01T09:46:33.093Z,2.38
2022-12-01T09:47:33.018Z,2.38
2022-12-01T09:48:33.052Z,2.38
2022-12-01T09:49:33.002Z,2.39
2022-12-01T09:50:33.184Z,2.40
2022-12-01T09:51:32.968Z,2.40
2022-12-01T09:52:32.959Z,2.41
2022-12-01T09:53:32.947Z,2.42
2022-12-01T09:54:33.109Z,2.42
2022-12-01T09:55:32.920Z,2.41
2022-12-01T09:56:32.903Z,2.40
2022-12-01T09:57:32.891Z,2.41
2022-12-01T09:58:32.882Z,2.42
2022-12-01T09:59:32.868Z,2.43
2022-12-01T10:00:32.941Z,2.44
2022-12-01T10:01:32.921Z,2.45
2022-12-01T10:02:32.912Z,2.48
2022-12-01T10:03:32.820Z,2.49
2022-12-01T10:04:32.799Z,2.50
2022-12-01T10:05:32.832Z,2.53
2022-12-01T10:06:32.837Z,2.56
2022-12-01T10:07:32.783Z,2.58
2022-12-01T10:08:32.751Z,2.61
2022-12-01T10:09:32.741Z,2.64
2022-12-01T10:10:32.719Z,2.70
2022-12-01T10:11:32.709Z,2.74
2022-12-01T10:12:32.728Z,2.76
2022-12-01T10:13:32.687Z,2.77
2022-12-01T10:14:32.666Z,2.77
2022-12-01T10:15:32.669Z,2.79
2022-12-01T10:16:32.723Z,2.81
2022-12-01T10:17:32.638Z,2.82
2022-12-01T10:18:32.627Z,2.81
2022-12-01T10:19:32.612Z,2.82
2022-12-01T10:20:32.589Z,2.81
2022-12-01T10:21:32.586Z,2.79
2022-12-01T10:22:32.567Z,2.79
2022-12-01T10:23:32.555Z,2.81
2022-12-01T10:24:32.575Z,2.82
2022-12-01T10:25:32.537Z,2.82
2022-12-01T10:26:32.518Z,2.83
2022-12-01T10:27:32.519Z,2.84
2022-12-01T10:28:32.487Z,2.84
2022-12-01T10:29:32.475Z,2.85
2022-12-01T10:30:32.499Z,2.86
2022-12-01T10:31:32.565Z,2.88
2022-12-01T10:32:32.433Z,2.91
2022-12-01T10:33:32.424Z,2.92
2022-12-01T10:34:32.408Z,2.95
2022-12-01T10:35:32.405Z,2.98
2022-12-01T10:36:32.418Z,3.00
2022-12-01T10:37:32.374Z,3.02
2022-12-01T10:38:32.356Z,3.03
2022-12-01T10:39:32.358Z,3.03
2022-12-01T10:40:32.333Z,3.03
2022-12-01T10:41:32.324Z,3.01
2022-12-01T10:42:32.344Z,3.01
2022-12-01T10:43:32.294Z,3.02
2022-12-01T10:44:32.299Z,3.06
2022-12-01T10:45:32.332Z,3.11
2022-12-01T10:46:32.264Z,3.16
2022-12-01T10:47:32.244Z,3.20
2022-12-01T10:48:32.252Z,3.24
2022-12-01T10:49:32.224Z,3.25
2022-12-01T10:50:32.206Z,3.26
2022-12-01T10:51:32.251Z,3.25
2022-12-01T10:52:32.183Z,3.25
2022-12-01T10:53:32.174Z,3.24
2022-12-01T10:54:32.175Z,3.26
2022-12-01T10:55:32.142Z,3.27
2022-12-01T10:56:32.124Z,3.28
2022-12-01T10:57:32.122Z,3.29
2022-12-01T10:58:32.106Z,3.30
2022-12-01T10:59:32.092Z,3.33
2022-12-01T11:01:33.275Z,3.36
2022-12-01T11:02:32.194Z,3.39
2022-12-01T11:03:32.245Z,3.42
2022-12-01T11:04:32.024Z,3.44
2022-12-01T11:05:32.001Z,3.47
2022-12-01T11:06:32.033Z,3.49
2022-12-01T11:07:32.061Z,3.52
2022-12-01T11:08:31.972Z,3.53
2022-12-01T11:09:31.957Z,3.54
2022-12-01T11:10:31.975Z,3.55
2022-12-01T11:11:31.930Z,3.57
2022-12-01T11:12:31.944Z,3.57
2022-12-01T11:13:31.931Z,3.58
2022-12-01T11:14:31.900Z,3.59
2022-12-01T11:15:31.879Z,3.63
2022-12-01T11:16:31.923Z,3.67
2022-12-01T11:17:31.850Z,3.69
2022-12-01T11:18:31.916Z,3.70
2022-12-01T11:19:31.840Z,3.73
2022-12-01T11:20:31.920Z,3.74
2022-12-01T11:21:31.799Z,3.72
2022-12-01T11:22:31.813Z,3.70
2022-12-01T11:23:31.776Z,3.68
2022-12-01T11:24:31.799Z,3.68
2022-12-01T11:25:31.752Z,3.68
2022-12-01T11:26:31.738Z,3.68
2022-12-01T11:27:31.727Z,3.67
2022-12-01T11:28:31.719Z,3.66
2022-12-01T11:29:31.733Z,3.66
2022-12-01T11:30:31.709Z,3.66
2022-12-01T11:31:31.756Z,3.66
2022-12-01T11:32:31.675Z,3.67
2022-12-01T11:33:31.650Z,3.70
2022-12-01T11:34:31.649Z,3.73
2022-12-01T11:35:31.627Z,3.77
2022-12-01T11:36:31.649Z,3.78
2022-12-01T11:37:31.600Z,3.79
2022-12-01T11:38:31.629Z,3.78
2022-12-01T11:39:31.570Z,3.79
2022-12-01T11:40:31.559Z,3.81
2022-12-01T11:41:31.536Z,3.85
2022-12-01T11:42:31.549Z,3.90
2022-12-01T11:43:31.508Z,3.93
2022-12-01T11:45:32.557Z,3.96
2022-12-01T11:46:31.475Z,3.95
2022-12-01T11:47:32.470Z,3.92
2022-12-01T11:48:31.477Z,3.87
2022-12-01T11:49:31.438Z,3.85
2022-12-01T11:50:31.418Z,3.85
2022-12-01T11:51:31.407Z,3.84
2022-12-01T11:52:31.401Z,3.85
2022-12-01T11:53:31.387Z,3.87
2022-12-01T11:54:31.417Z,3.88
2022-12-01T11:55:31.363Z,3.89
2022-12-01T11:56:31.335Z,3.91
2022-12-01T11:57:34.516Z,3.93
2022-12-01T11:58:31.391Z,3.98
2022-12-01T11:59:31.330Z,4.02
2022-12-01T12:00:31.332Z,4.03
2022-12-01T12:01:31.296Z,4.04
2022-12-01T12:02:31.335Z,4.04
2022-12-01T12:03:31.328Z,4.05
2022-12-01T12:04:31.235Z,4.04
2022-12-01T12:05:31.226Z,4.02
2022-12-01T12:06:39.785Z,4.00
2022-12-01T12:07:32.258Z,3.97
2022-12-01T12:08:31.225Z,3.96
2022-12-01T12:09:31.175Z,3.96
2022-12-01T12:10:31.197Z,3.96
2022-12-01T12:11:31.145Z,3.97
2022-12-01T12:12:31.164Z,4.00
2022-12-01T12:13:31.114Z,4.02
2022-12-01T12:14:31.115Z,4.05
2022-12-01T12:15:31.094Z,4.09
2022-12-01T12:16:32.198Z,4.12
2022-12-01T12:17:31.127Z,4.13
2022-12-01T12:18:31.086Z,4.13
2022-12-01T12:19:34.329Z,4.13
2022-12-01T12:20:32.023Z,4.14
2022-12-01T12:21:31.015Z,4.14
2022-12-01T12:22:30.995Z,4.12
2022-12-01T12:23:30.996Z,4.10
2022-12-01T12:24:31.005Z,4.08
2022-12-01T12:25:30.962Z,4.07
2022-12-01T12:26:30.954Z,4.08
2022-12-01T12:27:30.943Z,4.08
2022-12-01T12:28:30.920Z,4.09
2022-12-01T12:29:30.913Z,4.09
2022-12-01T12:30:30.959Z,4.08
2022-12-01T12:31:30.895Z,4.08
2022-12-01T12:32:30.865Z,4.11
2022-12-01T12:33:30.874Z,4.15
2022-12-01T12:34:30.842Z,4.19
2022-12-01T12:35:30.832Z,4.20
2022-12-01T12:36:30.852Z,4.21
2022-12-01T12:37:30.812Z,4.24
2022-12-01T12:38:30.793Z,4.27
2022-12-01T12:39:30.782Z,4.29
2022-12-01T12:40:30.766Z,4.29
2022-12-01T12:41:30.765Z,4.29
2022-12-01T12:42:30.754Z,4.28
2022-12-01T12:43:30.729Z,4.29
2022-12-01T12:44:36.620Z,4.29
2022-12-01T12:45:31.699Z,4.29
2022-12-01T12:46:30.748Z,4.29
2022-12-01T12:47:30.671Z,4.29
2022-12-01T12:48:31.702Z,4.32
2022-12-01T12:49:30.643Z,4.33
2022-12-01T12:50:30.641Z,4.34
2022-12-01T12:51:30.620Z,4.35
2022-12-01T12:52:30.611Z,4.38
2022-12-01T12:53:30.593Z,4.40
2022-12-01T12:54:30.663Z,4.42
2022-12-01T12:55:30.561Z,4.43
2022-12-01T12:56:30.560Z,4.44
2022-12-01T12:57:30.541Z,4.45
2022-12-01T12:58:30.530Z,4.45
2022-12-01T12:59:30.512Z,4.45
2022-12-01T13:00:30.541Z,4.47
2022-12-01T13:01:30.568Z,4.48
2022-12-01T13:02:30.538Z,4.51
2022-12-01T13:03:33.940Z,4.53
2022-12-01T13:04:30.449Z,4.54
2022-12-01T13:05:30.450Z,4.54
2022-12-01T13:06:30.462Z,4.53
2022-12-01T13:07:30.441Z,4.53
2022-12-01T13:08:30.395Z,4.54
2022-12-01T13:09:30.391Z,4.54
2022-12-01T13:10:30.378Z,4.54
2022-12-01T13:11:30.368Z,4.55
2022-12-01T13:12:30.359Z,4.55
2022-12-01T13:13:30.329Z,4.57
2022-12-01T13:14:30.320Z,4.60
2022-12-01T13:15:30.371Z,4.62
2022-12-01T13:16:30.298Z,4.63
2022-12-01T13:17:30.279Z,4.62
2022-12-01T13:18:30.300Z,4.61
2022-12-01T13:19:30.262Z,4.62
2022-12-01T13:20:30.239Z,4.63